Current Conditions
Clear
Conditions



Pressure
1013.92 (mb) - 29.94 (inHG)
Visibility

10.0 (km) - 6.2 (miles)
   Temperature
1  °C
34°F
0  °C
Dewpoint
93  %
 Humidity
   Wind Speed
11  km/h
6  kts
7  mph
3.1  m/s
   Wind Direction
 290°
West North
West
   Airport Data
LELN
Location Leon 15 km (9.32 mi)
Metar :LELN 180600Z AUTO 29006KT 250V320 9999 NCD 01/00 Q1014
Mon 18th November 08:00 am
   Raw Metar Info
Raw METAR is the most common format in the world for the transmission of observational weather data. It is highly standardized through the International Civil Aviation Organization (ICAO), which allows it to be understood throughout most of the world.
   API Info
Data Provided by
https://www.checkwx.com/weather/LELN
   © Info
CSS/SVG/PHP scripts were developed by weather34.com for use in the weather34 template © 2015-2019

Guide Info provided by Metar-Wikipedia